Time;durP1;ratioP1;P1;durP2;ratioP2;P2;SDS_P1;SDS_P2;PMS_P1;PMS_P2;Temp;Humidity;BMP_temperature;BMP_pressure;BME280_temperature;BME280_humidity;BME280_pressure;Samples;Min_cycle;Max_cycle;Signal;HPM_P1;HPM_P2
2022/05/12 00:00:28;;;;;;;2.97;2.67;;;21.40;63.60;;;;;;10463797;28;20568;-81
2022/05/12 00:05:30;;;;;;;3.37;3.10;;;21.40;68.40;;;;;;10475203;28;20584;-82
2022/05/12 00:10:33;;;;;;;3.50;3.20;;;21.30;69.20;;;;;;10499349;28;20216;-81
2022/05/12 00:15:37;;;;;;;3.60;3.40;;;21.30;66.10;;;;;;10481513;28;20247;-81
2022/05/12 00:20:42;;;;;;;3.77;3.50;;;21.30;67.40;;;;;;10480419;28;20320;-81
2022/05/12 00:25:48;;;;;;;3.40;3.20;;;21.30;68.90;;;;;;10479799;28;20209;-81
2022/05/12 00:30:53;;;;;;;3.80;3.50;;;21.20;69.80;;;;;;10482389;28;20212;-82
2022/05/12 00:35:56;;;;;;;3.87;3.60;;;21.20;70.00;;;;;;10483780;28;20212;-81
2022/05/12 00:41:00;;;;;;;3.50;3.30;;;21.20;73.90;;;;;;10480290;28;20319;-81
2022/05/12 00:46:02;;;;;;;3.87;3.47;;;21.20;72.50;;;;;;10480933;28;20229;-81
2022/05/12 00:51:05;;;;;;;4.07;3.77;;;21.20;71.40;;;;;;10493887;28;20217;-80
2022/05/12 00:56:13;;;;;;;3.30;3.10;;;21.20;69.70;;;;;;10493093;28;20223;-81
2022/05/12 01:01:15;;;;;;;3.77;3.57;;;21.10;69.50;;;;;;10480423;28;20224;-81
2022/05/12 01:06:17;;;;;;;4.33;3.93;;;21.10;72.30;;;;;;10500277;28;20216;-81
2022/05/12 01:11:21;;;;;;;4.10;3.70;;;21.10;70.20;;;;;;10511011;28;20243;-80
2022/05/12 01:16:43;;;;;;;4.23;3.90;;;21.10;70.10;;;;;;10507218;28;20613;-81
2022/05/12 01:21:46;;;;;;;4.40;3.97;;;21.00;72.20;;;;;;10470152;28;20230;-80
2022/05/12 01:26:50;;;;;;;3.43;3.23;;;21.00;77.50;;;;;;10470819;28;20213;-81
2022/05/12 01:31:52;;;;;;;3.53;3.33;;;21.00;79.70;;;;;;10497067;28;20300;-80
2022/05/12 01:36:54;;;;;;;4.33;4.00;;;20.90;82.00;;;;;;10502811;28;20193;-79
2022/05/12 01:41:59;;;;;;;3.43;3.23;;;20.80;81.00;;;;;;10486546;28;20668;-79
2022/05/12 01:47:01;;;;;;;3.77;3.47;;;20.70;82.70;;;;;;10503181;28;20223;-81
2022/05/12 01:52:05;;;;;;;4.43;3.90;;;20.70;82.10;;;;;;10498143;28;20223;-80
2022/05/12 01:57:09;;;;;;;4.33;3.90;;;20.60;82.00;;;;;;10497043;28;20201;-79
2022/05/12 02:02:11;;;;;;;4.07;3.77;;;20.50;84.90;;;;;;10477634;28;20255;-79
2022/05/12 02:07:13;;;;;;;4.77;3.90;;;20.50;81.40;;;;;;10471709;28;20307;-80
2022/05/12 02:12:16;;;;;;;4.20;3.90;;;20.40;80.80;;;;;;10483909;28;20277;-79
2022/05/12 02:17:19;;;;;;;3.87;3.67;;;20.30;80.30;;;;;;10496310;28;20279;-80
2022/05/12 02:22:21;;;;;;;3.97;3.77;;;20.20;79.50;;;;;;10496079;28;20223;-80
2022/05/12 02:27:24;;;;;;;4.00;3.80;;;20.10;78.80;;;;;;10495818;28;20211;-79
2022/05/12 02:32:27;;;;;;;4.43;4.13;;;20.00;80.00;;;;;;10473638;28;20618;-80
2022/05/12 02:37:29;;;;;;;4.33;4.10;;;19.90;79.50;;;;;;10502500;28;20536;-80
2022/05/12 02:42:33;;;;;;;4.50;4.20;;;19.90;80.10;;;;;;10457808;28;20239;-81
2022/05/12 02:47:35;;;;;;;3.73;3.40;;;19.80;82.10;;;;;;10499541;28;20701;-79
2022/05/12 02:52:37;;;;;;;4.63;4.30;;;19.70;81.50;;;;;;10485281;28;20252;-80
2022/05/12 02:57:41;;;;;;;6.37;4.50;;;19.70;83.60;;;;;;10498163;28;20193;-79
2022/05/12 03:02:43;;;;;;;4.80;4.50;;;19.60;82.40;;;;;;10498296;28;20228;-80
2022/05/12 03:07:46;;;;;;;4.70;4.40;;;19.60;83.00;;;;;;10495263;28;20213;-80
2022/05/12 03:12:49;;;;;;;4.63;4.23;;;19.60;82.80;;;;;;10484659;28;20277;-80
2022/05/12 03:17:51;;;;;;;4.13;3.93;;;19.50;83.50;;;;;;10500304;28;20189;-80
2022/05/12 03:22:53;;;;;;;4.70;4.10;;;19.40;85.00;;;;;;10483948;28;20220;-81
2022/05/12 03:27:57;;;;;;;4.20;3.90;;;19.40;85.70;;;;;;10501149;28;20220;-80
2022/05/12 03:32:59;;;;;;;4.40;3.90;;;19.40;84.90;;;;;;10501236;28;20680;-79
2022/05/12 03:38:01;;;;;;;4.33;4.03;;;19.30;85.40;;;;;;10482586;28;20224;-81
2022/05/12 03:43:04;;;;;;;4.53;4.20;;;19.30;87.00;;;;;;10497353;28;20612;-81
2022/05/12 03:48:07;;;;;;;6.20;3.77;;;19.20;87.40;;;;;;10498856;28;20216;-81
2022/05/12 03:53:10;;;;;;;4.60;4.30;;;19.20;87.90;;;;;;10500707;28;20242;-80
2022/05/12 03:58:13;;;;;;;4.00;3.60;;;19.20;88.70;;;;;;10495694;28;20201;-80
2022/05/12 04:03:15;;;;;;;4.33;4.03;;;19.10;89.80;;;;;;10472856;28;20315;-80
2022/05/12 04:08:17;;;;;;;3.90;3.50;;;19.20;90.10;;;;;;10481204;28;20224;-79
2022/05/12 04:13:21;;;;;;;3.93;3.67;;;19.20;90.40;;;;;;10482241;28;20576;-80
2022/05/12 04:18:23;;;;;;;3.50;3.30;;;19.20;90.60;;;;;;10482674;28;20238;-80
2022/05/12 04:23:25;;;;;;;4.10;3.80;;;19.20;91.30;;;;;;10483313;28;20349;-79
2022/05/12 04:28:29;;;;;;;3.80;3.60;;;19.20;91.00;;;;;;10480589;28;20273;-80
2022/05/12 04:38:59;;;;;;;4.10;3.80;;;19.30;91.20;;;;;;10449178;28;20200;-79
2022/05/12 04:44:05;;;;;;;3.60;3.40;;;19.30;91.60;;;;;;10497746;28;20240;-80
2022/05/12 04:49:10;;;;;;;4.57;4.27;;;19.30;91.90;;;;;;10507292;28;20216;-80
2022/05/12 04:54:14;;;;;;;3.50;3.27;;;19.30;92.10;;;;;;10500147;28;20366;-82
2022/05/12 04:59:17;;;;;;;4.20;3.90;;;19.40;92.40;;;;;;10505066;28;20635;-81
2022/05/12 05:04:20;;;;;;;3.80;3.40;;;19.30;93.00;;;;;;10504277;28;20971;-81
2022/05/12 05:09:22;;;;;;;4.73;4.23;;;19.40;93.10;;;;;;10469768;28;20240;-81
2022/05/12 05:14:26;;;;;;;4.43;4.13;;;19.40;93.30;;;;;;10482478;28;20259;-81
2022/05/12 05:19:28;;;;;;;4.10;3.70;;;19.50;93.40;;;;;;10485735;28;20200;-81
2022/05/12 05:24:30;;;;;;;3.80;3.50;;;19.60;94.10;;;;;;10487827;28;20652;-78
2022/05/12 05:29:34;;;;;;;3.80;3.60;;;19.60;94.00;;;;;;10489826;28;20238;-80
2022/05/12 05:34:36;;;;;;;3.37;3.17;;;19.80;94.20;;;;;;10478420;28;20270;-81
2022/05/12 05:39:38;;;;;;;3.77;3.50;;;19.90;93.30;;;;;;10479143;28;20249;-81
2022/05/12 05:44:42;;;;;;;3.90;3.70;;;20.00;93.60;;;;;;10481286;28;20204;-81
2022/05/12 05:49:44;;;;;;;5.13;3.70;;;20.10;93.90;;;;;;10485030;28;20269;-81
2022/05/12 05:54:46;;;;;;;4.43;4.03;;;20.10;93.20;;;;;;10478802;28;20201;-81
2022/05/12 05:59:50;;;;;;;3.90;3.60;;;20.30;94.40;;;;;;10485587;28;20193;-81
2022/05/12 06:04:53;;;;;;;3.53;3.23;;;20.50;91.80;;;;;;10480743;28;20610;-81
2022/05/12 06:09:55;;;;;;;3.53;3.33;;;20.70;93.50;;;;;;10497851;28;20235;-80
2022/05/12 06:14:59;;;;;;;7.63;3.57;;;20.70;91.70;;;;;;10483850;28;20288;-80
2022/05/12 06:20:01;;;;;;;4.10;3.80;;;20.70;92.50;;;;;;10485226;28;20220;-81
2022/05/12 06:25:05;;;;;;;3.97;3.50;;;20.70;92.80;;;;;;10485326;28;20561;-81
2022/05/12 06:30:11;;;;;;;3.67;3.47;;;20.80;93.60;;;;;;10511364;28;20231;-80
2022/05/12 06:35:16;;;;;;;3.50;3.27;;;21.00;93.00;;;;;;10516574;28;20200;-80
2022/05/12 06:40:19;;;;;;;4.30;4.00;;;21.30;93.00;;;;;;10506900;28;20239;-80
2022/05/12 06:45:23;;;;;;;3.63;3.43;;;21.70;91.20;;;;;;10484600;28;20235;-80
2022/05/12 06:50:28;;;;;;;3.17;2.77;;;22.00;92.30;;;;;;10498766;28;20355;-80
2022/05/12 06:55:31;;;;;;;3.60;3.30;;;22.10;91.50;;;;;;10482077;28;20223;-80
2022/05/12 07:00:35;;;;;;;3.27;3.07;;;22.20;92.20;;;;;;10500228;28;20303;-80
2022/05/12 07:05:38;;;;;;;4.60;2.87;;;22.10;91.40;;;;;;10480740;28;20226;-80
2022/05/12 07:10:40;;;;;;;3.40;3.17;;;22.00;90.60;;;;;;10480756;28;20224;-80
2022/05/12 07:15:44;;;;;;;2.87;2.67;;;22.10;90.90;;;;;;10490960;28;20222;-80
2022/05/12 07:31:27;;;;;;;3.50;3.13;;;22.80;89.60;;;;;;10479612;28;20235;-80
2022/05/12 07:36:32;;;;;;;2.47;2.30;;;23.00;88.60;;;;;;10478924;28;20196;-80
2022/05/12 07:41:34;;;;;;;2.93;2.70;;;23.10;91.20;;;;;;10482307;28;20235;-80
2022/05/12 07:46:38;;;;;;;3.43;3.13;;;23.30;90.40;;;;;;10499758;28;20209;-80
2022/05/12 07:51:40;;;;;;;3.80;2.73;;;23.50;89.10;;;;;;10479945;28;20216;-80
2022/05/12 07:56:43;;;;;;;4.50;2.77;;;23.70;90.10;;;;;;10506001;28;20311;-80
2022/05/12 08:01:47;;;;;;;2.50;2.40;;;24.00;89.40;;;;;;10484740;28;20220;-80
2022/05/12 08:06:49;;;;;;;3.20;2.90;;;24.30;87.10;;;;;;10506800;28;20596;-81
2022/05/12 08:11:51;;;;;;;2.90;2.70;;;24.70;88.30;;;;;;10489661;28;20227;-81
2022/05/12 08:16:55;;;;;;;3.00;2.70;;;25.00;87.10;;;;;;10508475;28;20537;-82
2022/05/12 08:21:57;;;;;;;2.80;2.70;;;25.30;83.80;;;;;;10489574;28;20228;-81
2022/05/12 08:26:59;;;;;;;2.73;2.53;;;25.60;84.00;;;;;;10494169;28;20208;-80
2022/05/12 08:32:02;;;;;;;2.67;2.50;;;26.20;82.40;;;;;;10479873;28;20229;-81
2022/05/12 08:37:05;;;;;;;1.90;1.80;;;26.70;82.30;;;;;;10490917;28;20228;-80
2022/05/12 08:42:13;;;;;;;2.83;2.63;;;27.00;81.30;;;;;;10512226;28;20289;-81
2022/05/12 08:47:29;;;;;;;3.00;2.80;;;27.10;78.10;;;;;;10517118;28;20208;-80
2022/05/12 08:52:37;;;;;;;2.80;2.60;;;26.90;79.30;;;;;;10509458;28;20846;-80
2022/05/12 08:57:43;;;;;;;3.27;2.97;;;26.80;80.80;;;;;;10508229;28;20192;-80
2022/05/12 09:02:55;;;;;;;2.43;2.30;;;27.00;78.80;;;;;;10497710;28;20244;-79
2022/05/12 09:08:21;;;;;;;6.60;3.23;;;27.30;79.30;;;;;;10501388;28;20228;-80
2022/05/12 09:13:26;;;;;;;3.37;3.17;;;27.50;75.90;;;;;;10500938;28;20239;-80
2022/05/12 09:18:34;;;;;;;2.40;2.30;;;27.40;75.80;;;;;;10508854;28;20239;-81
2022/05/12 09:23:37;;;;;;;2.93;2.77;;;27.50;78.30;;;;;;10496938;28;20429;-81
2022/05/12 09:28:42;;;;;;;3.27;3.07;;;27.60;78.30;;;;;;10507437;28;20243;-81
2022/05/12 09:33:48;;;;;;;3.60;3.30;;;27.60;78.80;;;;;;10488131;28;20224;-81
2022/05/12 09:38:54;;;;;;;3.70;3.50;;;27.40;80.80;;;;;;10486715;28;20231;-81
2022/05/12 09:43:57;;;;;;;3.67;3.47;;;27.00;76.40;;;;;;10494129;28;20593;-81
2022/05/12 09:49:19;;;;;;;8.97;3.93;;;26.70;78.90;;;;;;10505635;28;20254;-81
2022/05/12 09:54:26;;;;;;;4.43;4.13;;;26.30;77.00;;;;;;10501917;28;20220;-81
2022/05/12 09:59:30;;;;;;;5.60;3.77;;;26.50;80.30;;;;;;10474876;28;20211;-81
2022/05/12 10:10:05;;;;;;;4.63;4.17;;;27.50;77.60;;;;;;10470561;28;20224;-78
2022/05/12 10:15:18;;;;;;;3.47;3.27;;;27.50;77.40;;;;;;10471471;28;20204;-80
2022/05/12 10:20:24;;;;;;;4.70;3.93;;;27.30;76.10;;;;;;10475210;28;20327;-80
2022/05/12 10:25:47;;;;;;;3.40;3.10;;;26.90;78.60;;;;;;10488458;28;20201;-81
2022/05/12 10:30:54;;;;;;;3.63;3.43;;;26.60;80.70;;;;;;10504891;28;20228;-81
2022/05/12 10:36:08;;;;;;;3.60;3.30;;;26.10;82.30;;;;;;10497652;28;20208;-80
2022/05/12 10:41:17;;;;;;;3.50;3.20;;;25.80;80.20;;;;;;10484888;28;20716;-80
2022/05/12 10:46:29;;;;;;;3.93;3.60;;;25.70;86.20;;;;;;10500174;28;20294;-80
2022/05/12 10:51:40;;;;;;;3.87;3.57;;;25.60;85.20;;;;;;10497413;28;20304;-80
2022/05/12 10:56:49;;;;;;;4.90;3.87;;;25.50;81.50;;;;;;10466501;28;20212;-81
2022/05/12 11:01:55;;;;;;;4.77;4.37;;;25.50;84.50;;;;;;10481138;28;20213;-80
2022/05/12 11:07:04;;;;;;;3.63;3.43;;;25.30;84.60;;;;;;10475853;28;20201;-81
2022/05/12 11:12:19;;;;;;;3.90;3.53;;;25.40;86.10;;;;;;10444311;28;20316;-81
2022/05/12 11:17:28;;;;;;;3.80;3.20;;;25.40;87.70;;;;;;10450706;28;20235;-82
2022/05/12 11:22:38;;;;;;;4.30;3.90;;;25.50;87.80;;;;;;10475206;28;20277;-80
2022/05/12 11:27:50;;;;;;;3.63;3.43;;;25.50;87.10;;;;;;10499214;28;20586;-80
2022/05/12 11:33:02;;;;;;;4.40;4.10;;;25.40;85.20;;;;;;10498655;28;20270;-80
2022/05/12 11:38:10;;;;;;;4.63;4.30;;;25.40;85.40;;;;;;10495513;28;20197;-80
2022/05/12 11:48:40;;;;;;;4.30;4.00;;;25.40;79.30;;;;;;10530413;28;20586;-83
2022/05/12 11:53:58;;;;;;;4.90;3.60;;;25.40;80.50;;;;;;10549418;28;20216;-82
2022/05/12 11:59:17;;;;;;;4.30;4.00;;;25.30;81.30;;;;;;10536647;28;20204;-82
2022/05/12 12:04:44;;;;;;;4.67;4.37;;;25.30;80.60;;;;;;10541666;28;20223;-82
2022/05/12 12:09:54;;;;;;;4.60;4.30;;;25.10;79.60;;;;;;10534844;28;20308;-82
2022/05/12 12:14:59;;;;;;;5.83;4.57;;;24.90;82.50;;;;;;10536125;28;20223;-82
2022/05/12 12:20:08;;;;;;;5.00;4.50;;;24.70;78.20;;;;;;10529578;28;20219;-83
2022/05/12 12:25:30;;;;;;;4.80;4.30;;;24.70;80.70;;;;;;10518282;28;20204;-82
2022/05/12 12:31:05;;;;;;;5.63;5.23;;;24.60;84.30;;;;;;10514677;28;20300;-83
2022/05/12 12:36:29;;;;;;;4.10;3.87;;;24.60;82.40;;;;;;10523260;28;20263;-83
2022/05/12 12:41:39;;;;;;;4.80;4.40;;;24.50;84.10;;;;;;10523491;28;20227;-83
2022/05/12 12:46:53;;;;;;;4.73;4.37;;;24.40;84.40;;;;;;10532803;28;20642;-83
2022/05/12 12:51:58;;;;;;;4.40;4.00;;;24.30;83.80;;;;;;10535889;28;20587;-84
2022/05/12 12:57:06;;;;;;;5.37;4.17;;;24.30;86.90;;;;;;10529826;28;20203;-84
2022/05/12 13:02:09;;;;;;;5.33;4.83;;;24.30;87.00;;;;;;10534437;28;20255;-83
2022/05/12 13:07:11;;;;;;;3.93;3.63;;;24.40;87.70;;;;;;10539589;28;20603;-83
2022/05/12 13:12:18;;;;;;;6.50;3.70;;;24.60;84.80;;;;;;10535534;28;20223;-83
2022/05/12 13:17:22;;;;;;;3.87;3.57;;;24.70;83.70;;;;;;10543639;28;20249;-83
2022/05/12 13:22:28;;;;;;;3.97;3.30;;;24.80;83.10;;;;;;10548281;28;20265;-83
2022/05/12 13:27:35;;;;;;;4.20;3.80;;;24.80;84.90;;;;;;10532381;28;20204;-83
2022/05/12 13:32:43;;;;;;;4.20;3.90;;;24.80;82.50;;;;;;10532567;28;20246;-83
2022/05/12 13:37:50;;;;;;;4.23;3.97;;;24.70;83.90;;;;;;10538814;28;20648;-83
2022/05/12 13:42:56;;;;;;;3.73;3.40;;;24.80;83.80;;;;;;10529601;28;20231;-83
2022/05/12 13:48:00;;;;;;;3.80;3.50;;;24.70;86.40;;;;;;10520973;28;20208;-82
2022/05/12 13:53:03;;;;;;;3.67;3.47;;;24.70;87.20;;;;;;10519566;28;20282;-81
2022/05/12 13:58:16;;;;;;;4.53;4.13;;;24.70;84.90;;;;;;10529498;28;20199;-83
2022/05/12 14:03:27;;;;;;;4.00;3.70;;;24.70;85.60;;;;;;10529384;28;20231;-81
2022/05/12 14:08:33;;;;;;;4.10;3.80;;;24.70;87.50;;;;;;10538024;28;20216;-86
2022/05/12 14:19:14;;;;;;;4.10;3.80;;;24.80;86.70;;;;;;10508402;28;20200;-82
2022/05/12 14:24:18;;;;;;;3.80;3.50;;;24.80;87.10;;;;;;10508271;28;20244;-81
2022/05/12 14:29:21;;;;;;;6.10;4.20;;;24.90;86.40;;;;;;10525364;28;20220;-85
2022/05/12 14:34:24;;;;;;;3.87;3.53;;;25.00;83.80;;;;;;10506866;28;20217;-82
2022/05/12 14:39:27;;;;;;;4.20;3.70;;;25.00;86.00;;;;;;10512946;28;20542;-84
2022/05/12 14:44:31;;;;;;;3.43;3.23;;;25.00;86.10;;;;;;10518843;28;20711;-84
2022/05/12 14:49:36;;;;;;;4.10;3.80;;;25.00;87.90;;;;;;10515254;28;20228;-83
2022/05/12 14:54:38;;;;;;;4.30;3.63;;;25.00;86.80;;;;;;10528827;28;20277;-83
2022/05/12 14:59:42;;;;;;;4.00;3.70;;;25.00;86.90;;;;;;10525051;28;20209;-83
2022/05/12 15:04:45;;;;;;;3.77;3.50;;;25.00;87.60;;;;;;10521429;28;20247;-82
2022/05/12 15:09:47;;;;;;;3.43;3.23;;;25.00;88.00;;;;;;10532625;28;20728;-82
2022/05/12 15:14:51;;;;;;;3.77;3.57;;;25.00;87.20;;;;;;10524258;28;20262;-82
2022/05/12 15:19:53;;;;;;;5.13;3.80;;;25.00;87.10;;;;;;10532051;28;20209;-82
2022/05/12 15:24:55;;;;;;;4.97;3.73;;;24.90;87.80;;;;;;10527783;28;20322;-82
2022/05/12 15:29:59;;;;;;;4.63;3.80;;;24.90;88.20;;;;;;10524398;28;20224;-82
2022/05/12 15:35:02;;;;;;;3.93;3.73;;;24.70;88.20;;;;;;10526358;28;20224;-83
2022/05/12 15:40:05;;;;;;;3.67;3.37;;;24.60;86.70;;;;;;10528750;28;20231;-82
2022/05/12 15:45:10;;;;;;;4.00;3.70;;;24.50;87.90;;;;;;10526289;28;20603;-82
2022/05/12 15:50:14;;;;;;;3.90;3.70;;;24.40;89.90;;;;;;10530403;28;20631;-82
2022/05/12 15:55:16;;;;;;;3.93;3.63;;;24.30;88.90;;;;;;10531713;28;20203;-83
2022/05/12 16:00:20;;;;;;;4.53;3.60;;;24.20;88.80;;;;;;10526899;28;20242;-82
2022/05/12 16:05:23;;;;;;;4.07;3.80;;;24.20;88.60;;;;;;10518964;28;20227;-82
2022/05/12 16:10:25;;;;;;;3.57;3.10;;;24.10;89.70;;;;;;10535560;28;20223;-81
2022/05/12 16:15:31;;;;;;;3.90;3.60;;;24.00;91.00;;;;;;10514843;28;20196;-81
2022/05/12 16:20:33;;;;;;;5.33;4.50;;;23.90;90.20;;;;;;10506944;28;20242;-82
2022/05/12 16:25:42;;;;;;;5.90;5.50;;;23.70;90.20;;;;;;10518266;28;20203;-82
2022/05/12 16:30:45;;;;;;;5.13;4.73;;;23.50;90.30;;;;;;10524020;28;20287;-82
2022/05/12 16:35:48;;;;;;;4.80;4.50;;;23.40;90.30;;;;;;10513628;28;20271;-82
2022/05/12 16:40:52;;;;;;;9.23;6.70;;;23.20;92.60;;;;;;10531001;28;20248;-82
2022/05/12 16:45:56;;;;;;;9.70;6.87;;;22.90;93.40;;;;;;10539512;28;20196;-82
2022/05/12 16:50:58;;;;;;;9.23;8.40;;;22.30;96.00;;;;;;10515565;28;20234;-82
2022/05/12 16:56:01;;;;;;;10.60;9.60;;;21.60;98.00;;;;;;10534979;28;20209;-81
2022/05/12 17:01:04;;;;;;;11.40;10.47;;;21.00;99.70;;;;;;10541215;28;20230;-82
2022/05/12 17:06:07;;;;;;;10.70;9.70;;;20.50;99.90;;;;;;10541769;28;20677;-81
2022/05/12 17:11:11;;;;;;;12.23;11.20;;;20.20;99.90;;;;;;10496290;28;20226;-82
2022/05/12 17:16:15;;;;;;;11.87;10.77;;;19.80;99.90;;;;;;10505615;28;20285;-82
2022/05/12 17:21:17;;;;;;;11.37;10.57;;;19.50;99.90;;;;;;10499942;28;20844;-81
2022/05/12 17:26:19;;;;;;;12.23;11.00;;;19.30;99.90;;;;;;10513182;28;20258;-82
2022/05/12 17:31:23;;;;;;;10.67;9.90;;;19.10;99.90;;;;;;10514281;28;20671;-82
2022/05/12 17:36:26;;;;;;;11.90;11.00;;;19.10;99.90;;;;;;10508930;28;20192;-82
2022/05/12 17:41:28;;;;;;;11.23;10.23;;;19.10;99.90;;;;;;10506524;28;20226;-81
2022/05/12 17:46:32;;;;;;;12.90;11.90;;;19.20;99.90;;;;;;10505160;28;20235;-84
2022/05/12 17:51:35;;;;;;;11.40;10.50;;;19.20;99.90;;;;;;10511014;28;20479;-81
2022/05/12 17:56:37;;;;;;;11.93;10.80;;;19.30;99.90;;;;;;10518183;28;20204;-86
2022/05/12 18:01:42;;;;;;;13.23;12.13;;;19.40;99.90;;;;;;10501710;28;20228;-81
2022/05/12 18:06:44;;;;;;;15.07;13.67;;;19.50;99.90;;;;;;10507243;28;20195;-82
2022/05/12 18:11:47;;;;;;;16.47;14.97;;;19.60;99.90;;;;;;10510565;28;20227;-82
2022/05/12 18:16:54;;;;;;;22.73;20.50;;;19.70;99.90;;;;;;10506609;28;20221;-82
2022/05/12 18:21:56;;;;;;;14.30;13.10;;;19.80;99.90;;;;;;10536272;28;20747;-82
2022/05/12 18:26:58;;;;;;;13.53;12.30;;;19.80;99.90;;;;;;10542149;28;20226;-83
2022/05/12 18:32:02;;;;;;;10.30;9.40;;;19.80;99.90;;;;;;10523260;28;20270;-81
2022/05/12 18:37:05;;;;;;;9.17;8.37;;;19.80;99.90;;;;;;10526577;28;20204;-81
2022/05/12 18:42:08;;;;;;;10.83;9.90;;;19.70;99.90;;;;;;10528657;28;20261;-82
2022/05/12 18:47:11;;;;;;;11.13;10.13;;;19.70;99.90;;;;;;10512354;28;20226;-83
2022/05/12 18:52:14;;;;;;;10.57;9.67;;;19.60;99.90;;;;;;10517333;28;20215;-83
2022/05/12 18:57:18;;;;;;;10.90;10.00;;;19.60;99.90;;;;;;10532643;28;20253;-82
2022/05/12 19:02:22;;;;;;;10.70;9.83;;;19.60;99.90;;;;;;10555953;28;20679;-82
2022/05/12 19:07:26;;;;;;;11.13;10.13;;;19.50;99.90;;;;;;10533127;28;20201;-82
2022/05/12 19:12:30;;;;;;;11.70;10.83;;;19.60;99.90;;;;;;10527092;28;20224;-82
2022/05/12 19:17:37;;;;;;;12.50;11.40;;;19.60;99.90;;;;;;10498877;28;20203;-80
2022/05/12 19:22:39;;;;;;;11.00;10.00;;;19.60;99.90;;;;;;10519325;28;20220;-82
2022/05/12 19:27:41;;;;;;;11.80;10.90;;;19.60;99.90;;;;;;10539501;28;20195;-82
2022/05/12 19:32:46;;;;;;;10.90;9.93;;;19.70;99.90;;;;;;10528388;28;20427;-82
2022/05/12 19:37:50;;;;;;;11.47;10.57;;;19.70;99.90;;;;;;10533894;28;20311;-82
2022/05/12 19:42:53;;;;;;;10.47;9.63;;;19.70;99.90;;;;;;10524041;28;20304;-82
2022/05/12 19:47:58;;;;;;;11.90;10.90;;;19.70;99.90;;;;;;10504963;28;20199;-83
2022/05/12 19:53:01;;;;;;;11.60;10.70;;;19.70;99.90;;;;;;10519592;28;20277;-81
2022/05/12 19:58:05;;;;;;;12.00;10.93;;;19.60;99.90;;;;;;10516979;28;20208;-83
2022/05/12 20:03:10;;;;;;;10.73;9.80;;;19.60;99.90;;;;;;10523509;28;20223;-83
2022/05/12 20:08:12;;;;;;;10.17;9.30;;;19.60;99.90;;;;;;10558838;28;20286;-83
2022/05/12 20:13:16;;;;;;;11.33;10.33;;;19.60;99.90;;;;;;10545937;28;20239;-83
2022/05/12 20:18:21;;;;;;;10.10;9.30;;;19.60;99.90;;;;;;10526335;28;20229;-82
2022/05/12 20:23:23;;;;;;;8.87;8.23;;;19.60;99.90;;;;;;10543560;28;20219;-83
2022/05/12 20:28:25;;;;;;;9.57;8.60;;;19.60;99.90;;;;;;10534082;28;20606;-82
2022/05/12 20:33:29;;;;;;;9.80;9.00;;;19.60;99.90;;;;;;10540913;28;20216;-83
2022/05/12 20:38:31;;;;;;;10.47;8.57;;;19.60;99.90;;;;;;10562999;28;20219;-82
2022/05/12 20:43:33;;;;;;;8.23;7.60;;;19.70;99.90;;;;;;10541952;28;20255;-83
2022/05/12 20:48:41;;;;;;;8.87;8.07;;;19.70;99.90;;;;;;10530516;28;20208;-83
2022/05/12 20:53:45;;;;;;;9.00;8.00;;;19.70;99.90;;;;;;10543338;28;20279;-82
2022/05/12 20:58:48;;;;;;;9.10;8.40;;;19.70;99.90;;;;;;10544243;28;20659;-83
2022/05/12 21:03:51;;;;;;;8.37;7.77;;;19.70;99.90;;;;;;10536900;28;20715;-84
2022/05/12 21:08:54;;;;;;;7.90;7.30;;;19.70;99.90;;;;;;10528524;28;20227;-84
2022/05/12 21:13:56;;;;;;;11.67;10.57;;;19.70;99.90;;;;;;10521377;28;20220;-83
2022/05/12 21:18:59;;;;;;;9.77;9.07;;;19.70;99.90;;;;;;10536853;28;20237;-83
2022/05/12 21:24:02;;;;;;;8.97;8.30;;;19.70;99.90;;;;;;10510934;28;20227;-83
2022/05/12 21:29:04;;;;;;;9.13;8.33;;;19.70;99.90;;;;;;10513544;28;20599;-81
2022/05/12 21:34:08;;;;;;;8.50;7.80;;;19.70;99.90;;;;;;10491994;28;20679;-82
2022/05/12 21:39:10;;;;;;;8.67;8.03;;;19.70;99.90;;;;;;10519972;28;20290;-81
2022/05/12 21:44:12;;;;;;;8.03;7.33;;;19.70;99.90;;;;;;10520440;28;20242;-81
2022/05/12 21:49:16;;;;;;;8.40;7.80;;;19.70;99.90;;;;;;10517047;28;20208;-82
2022/05/12 21:54:18;;;;;;;8.63;7.53;;;19.80;99.90;;;;;;10533086;28;20220;-82
2022/05/12 22:04:41;;;;;;;7.93;7.23;;;19.80;99.90;;;;;;10527005;28;20566;-82
2022/05/12 22:09:43;;;;;;;8.53;7.93;;;19.80;99.90;;;;;;10536544;28;20202;-82
2022/05/12 22:14:46;;;;;;;7.37;6.87;;;19.80;99.90;;;;;;10536014;28;20288;-81
2022/05/12 22:19:50;;;;;;;7.77;7.27;;;19.90;99.90;;;;;;10504866;28;20250;-82
2022/05/12 22:24:52;;;;;;;7.80;7.20;;;19.90;99.90;;;;;;10515140;28;20229;-82
2022/05/12 22:29:54;;;;;;;7.90;7.20;;;19.90;99.90;;;;;;10521062;28;20207;-81
2022/05/12 22:35:01;;;;;;;8.73;7.93;;;19.90;99.90;;;;;;10527618;28;20584;-82
2022/05/12 22:40:04;;;;;;;8.47;7.67;;;19.90;99.90;;;;;;10515911;28;20273;-82
2022/05/12 22:45:07;;;;;;;7.20;6.70;;;19.90;99.90;;;;;;10520591;28;20236;-83
2022/05/12 22:50:12;;;;;;;8.30;7.50;;;20.00;99.90;;;;;;10489938;28;20492;-83
2022/05/12 22:55:15;;;;;;;8.40;7.80;;;20.00;99.90;;;;;;10510972;28;20208;-82
2022/05/12 23:00:19;;;;;;;8.90;7.70;;;19.90;99.90;;;;;;10497968;28;20740;-82
2022/05/12 23:05:23;;;;;;;6.53;6.03;;;19.90;99.90;;;;;;10505084;28;20203;-82
2022/05/12 23:10:25;;;;;;;7.83;7.27;;;19.90;99.90;;;;;;10517423;28;20201;-82
2022/05/12 23:15:27;;;;;;;7.67;7.03;;;19.80;99.90;;;;;;10501371;28;20280;-82
2022/05/12 23:25:51;;;;;;;7.97;7.27;;;19.70;99.90;;;;;;10514169;28;20199;-82
2022/05/12 23:30:53;;;;;;;7.80;7.20;;;19.70;99.90;;;;;;10530468;28;20222;-82
2022/05/12 23:35:57;;;;;;;8.27;7.67;;;19.60;99.90;;;;;;10522165;28;20681;-82
2022/05/12 23:40:59;;;;;;;8.13;7.63;;;19.60;99.90;;;;;;10555593;22;20203;-82
2022/05/12 23:46:01;;;;;;;8.27;7.67;;;19.60;99.90;;;;;;10511769;28;20204;-82
2022/05/12 23:51:06;;;;;;;8.67;7.97;;;19.60;99.90;;;;;;10490576;28;20273;-79
2022/05/12 23:56:08;;;;;;;8.10;7.50;;;19.60;99.90;;;;;;10499839;28;20288;-80
